AXL603 TFFJ-TFFG
Flight info
| Callsign | AXL603 |
|---|---|
| Flight time | 0h 7m |
| Altitude | 5000 |
| Route | VFR |
| Aircraft | BN2P/L-SDE3/L |
Departure
| Time | 2026-04-26 19:06 |
|---|---|
| Airport | St. Jean Airport (TFFJ) |
Arrival
| Time | 2026-04-26 19:14 |
|---|---|
| Airport | Grand Case-l'Espérance Airport (TFFG) |
| Time | Latitude | Longitude | Altitude | Speed | Heading |
|---|---|---|---|---|---|
| 2026-04-26 19:04 | 17.90373 | -62.84478 | 42 ft | 0 kts | 88° |
| 2026-04-26 19:05 | 17.90389 | -62.84597 | 50 ft | 18 kts | 269° |
| 2026-04-26 19:05 | 17.90417 | -62.84650 | 53 ft | 5 kts | 326° |
| 2026-04-26 19:05 | 17.90429 | -62.84551 | 44 ft | 45 kts | 92° |
| 2026-04-26 19:06 | 17.90441 | -62.84040 | 93 ft | 87 kts | 94° |
| 2026-04-26 19:06 | 17.90806 | -62.83500 | 271 ft | 106 kts | 27° |
| 2026-04-26 19:06 | 17.91571 | -62.83604 | 547 ft | 113 kts | 342° |
| 2026-04-26 19:06 | 17.92209 | -62.84124 | 866 ft | 122 kts | 314° |
| 2026-04-26 19:07 | 17.92817 | -62.84798 | 1167 ft | 131 kts | 314° |
| 2026-04-26 19:07 | 17.93457 | -62.85530 | 1414 ft | 138 kts | 317° |
| 2026-04-26 19:07 | 17.94124 | -62.86257 | 1594 ft | 144 kts | 313° |
| 2026-04-26 19:07 | 17.94821 | -62.87053 | 1677 ft | 152 kts | 313° |
| 2026-04-26 19:08 | 17.95577 | -62.87888 | 1690 ft | 163 kts | 313° |
| 2026-04-26 19:08 | 17.96383 | -62.88757 | 1658 ft | 172 kts | 313° |
| 2026-04-26 19:08 | 17.97249 | -62.89655 | 1652 ft | 177 kts | 314° |
| 2026-04-26 19:08 | 17.98131 | -62.90541 | 1737 ft | 175 kts | 315° |
| 2026-04-26 19:09 | 17.98997 | -62.91436 | 1803 ft | 174 kts | 315° |
| 2026-04-26 19:09 | 17.99876 | -62.92335 | 1851 ft | 177 kts | 315° |
| 2026-04-26 19:09 | 18.00720 | -62.93239 | 1957 ft | 177 kts | 313° |
| 2026-04-26 19:09 | 18.01550 | -62.94224 | 1960 ft | 180 kts | 311° |
| 2026-04-26 19:10 | 18.02397 | -62.95206 | 1948 ft | 182 kts | 312° |
| 2026-04-26 19:10 | 18.03259 | -62.96171 | 1869 ft | 184 kts | 313° |
| 2026-04-26 19:10 | 18.04177 | -62.97136 | 1735 ft | 188 kts | 315° |
| 2026-04-26 19:10 | 18.05123 | -62.98094 | 1637 ft | 189 kts | 316° |
| 2026-04-26 19:11 | 18.06065 | -62.99011 | 1616 ft | 185 kts | 317° |
| 2026-04-26 19:11 | 18.07033 | -62.99908 | 1544 ft | 186 kts | 319° |
| 2026-04-26 19:11 | 18.08034 | -63.00788 | 1373 ft | 188 kts | 320° |
| 2026-04-26 19:11 | 18.09036 | -63.01669 | 1292 ft | 185 kts | 319° |
| 2026-04-26 19:12 | 18.09990 | -63.02503 | 1231 ft | 170 kts | 319° |
| 2026-04-26 19:12 | 18.10820 | -63.03213 | 1097 ft | 139 kts | 318° |
| 2026-04-26 19:12 | 18.11531 | -63.03807 | 989 ft | 124 kts | 317° |
| 2026-04-26 19:12 | 18.12149 | -63.04425 | 907 ft | 121 kts | 302° |
| 2026-04-26 19:13 | 18.12271 | -63.05220 | 903 ft | 103 kts | 245° |
| 2026-04-26 19:13 | 18.11815 | -63.05708 | 781 ft | 94 kts | 196° |
| 2026-04-26 19:13 | 18.11204 | -63.05852 | 522 ft | 85 kts | 182° |
| 2026-04-26 19:13 | 18.10643 | -63.05885 | 336 ft | 74 kts | 166° |
| 2026-04-26 19:14 | 18.10260 | -63.05596 | 171 ft | 73 kts | 117° |
| 2026-04-26 19:14 | 18.10113 | -63.05104 | 3 ft | 63 kts | 109° |
| 2026-04-26 19:14 | 18.10031 | -63.04835 | 6 ft | 18 kts | 107° |
| 2026-04-26 19:14 | 18.10022 | -63.04789 | 6 ft | 10 kts | 83° |
| 2026-04-26 19:15 | 18.10091 | -63.04756 | 7 ft | 4 kts | 295° |
| 2026-04-26 19:15 | 18.10129 | -63.04765 | 7 ft | 0 kts | 14° |